sensor_id;sensor_type;location;lat;lon;timestamp;temperature;humidity
73939;DHT22;62291;47.554;8.504;2022-09-13T00:00:32;13.00;99.90
73939;DHT22;62291;47.554;8.504;2022-09-13T00:02:58;13.00;99.90
73939;DHT22;62291;47.554;8.504;2022-09-13T00:05:24;12.80;99.90
73939;DHT22;62291;47.554;8.504;2022-09-13T00:07:50;12.80;99.90
73939;DHT22;62291;47.554;8.504;2022-09-13T00:10:15;12.70;99.90
73939;DHT22;62291;47.554;8.504;2022-09-13T00:12:41;12.70;99.90
73939;DHT22;62291;47.554;8.504;2022-09-13T00:15:08;12.70;99.90
73939;DHT22;62291;47.554;8.504;2022-09-13T00:17:33;12.70;99.90
73939;DHT22;62291;47.554;8.504;2022-09-13T00:19:59;12.70;99.90
73939;DHT22;62291;47.554;8.504;2022-09-13T00:22:25;12.70;99.90
73939;DHT22;62291;47.554;8.504;2022-09-13T00:24:51;12.70;99.90
73939;DHT22;62291;47.554;8.504;2022-09-13T00:27:17;12.70;99.90
73939;DHT22;62291;47.554;8.504;2022-09-13T00:29:42;12.70;99.90
73939;DHT22;62291;47.554;8.504;2022-09-13T00:32:08;12.80;99.90
73939;DHT22;62291;47.554;8.504;2022-09-13T00:34:34;12.80;99.90
73939;DHT22;62291;47.554;8.504;2022-09-13T00:36:59;12.80;99.90
73939;DHT22;62291;47.554;8.504;2022-09-13T00:39:25;12.70;99.90
73939;DHT22;62291;47.554;8.504;2022-09-13T00:41:50;12.70;99.90
73939;DHT22;62291;47.554;8.504;2022-09-13T00:44:46;12.70;99.90
73939;DHT22;62291;47.554;8.504;2022-09-13T00:47:16;12.70;99.90
73939;DHT22;62291;47.554;8.504;2022-09-13T00:49:44;12.70;99.90
73939;DHT22;62291;47.554;8.504;2022-09-13T00:52:15;12.80;99.90
73939;DHT22;62291;47.554;8.504;2022-09-13T00:54:46;12.80;99.90
73939;DHT22;62291;47.554;8.504;2022-09-13T00:57:14;12.70;99.90
73939;DHT22;62291;47.554;8.504;2022-09-13T00:59:52;12.70;99.90
73939;DHT22;62291;47.554;8.504;2022-09-13T01:02:20;12.60;99.90
73939;DHT22;62291;47.554;8.504;2022-09-13T01:04:46;12.60;99.90
73939;DHT22;62291;47.554;8.504;2022-09-13T01:07:14;12.70;99.90
73939;DHT22;62291;47.554;8.504;2022-09-13T01:09:44;12.60;99.90
73939;DHT22;62291;47.554;8.504;2022-09-13T01:12:20;12.70;99.90
73939;DHT22;62291;47.554;8.504;2022-09-13T01:14:48;12.60;99.90
73939;DHT22;62291;47.554;8.504;2022-09-13T01:17:15;12.50;99.90
73939;DHT22;62291;47.554;8.504;2022-09-13T01:19:40;12.50;99.90
73939;DHT22;62291;47.554;8.504;2022-09-13T01:31:06;12.30;99.90
73939;DHT22;62291;47.554;8.504;2022-09-13T01:34:16;12.20;99.90
73939;DHT22;62291;47.554;8.504;2022-09-13T01:37:21;12.30;99.90
73939;DHT22;62291;47.554;8.504;2022-09-13T01:43:10;12.30;99.90
73939;DHT22;62291;47.554;8.504;2022-09-13T01:45:55;12.30;99.90
73939;DHT22;62291;47.554;8.504;2022-09-13T01:48:34;12.30;99.90
73939;DHT22;62291;47.554;8.504;2022-09-13T01:54:12;12.20;99.90
73939;DHT22;62291;47.554;8.504;2022-09-13T01:56:27;12.10;99.90
73939;DHT22;62291;47.554;8.504;2022-09-13T01:59:02;12.10;99.90
73939;DHT22;62291;47.554;8.504;2022-09-13T02:01:42;12.10;99.90
73939;DHT22;62291;47.554;8.504;2022-09-13T02:04:28;12.20;99.90
73939;DHT22;62291;47.554;8.504;2022-09-13T02:07:06;12.20;99.90
73939;DHT22;62291;47.554;8.504;2022-09-13T02:09:36;12.20;99.90
73939;DHT22;62291;47.554;8.504;2022-09-13T02:12:08;12.20;99.90
73939;DHT22;62291;47.554;8.504;2022-09-13T02:14:36;12.10;99.90
73939;DHT22;62291;47.554;8.504;2022-09-13T02:17:03;12.10;99.90
73939;DHT22;62291;47.554;8.504;2022-09-13T02:22:21;11.80;99.90
73939;DHT22;62291;47.554;8.504;2022-09-13T02:24:53;11.80;99.90
73939;DHT22;62291;47.554;8.504;2022-09-13T02:27:24;11.80;99.90
73939;DHT22;62291;47.554;8.504;2022-09-13T02:29:59;11.90;99.90
73939;DHT22;62291;47.554;8.504;2022-09-13T02:32:53;11.90;99.90
73939;DHT22;62291;47.554;8.504;2022-09-13T02:35:37;12.00;99.90
73939;DHT22;62291;47.554;8.504;2022-09-13T02:38:09;12.00;99.90
73939;DHT22;62291;47.554;8.504;2022-09-13T02:40:51;11.90;99.90
73939;DHT22;62291;47.554;8.504;2022-09-13T02:43:24;11.90;99.90
73939;DHT22;62291;47.554;8.504;2022-09-13T02:49:24;11.90;99.90
73939;DHT22;62291;47.554;8.504;2022-09-13T02:52:01;11.90;99.90
73939;DHT22;62291;47.554;8.504;2022-09-13T02:54:44;11.90;99.90
73939;DHT22;62291;47.554;8.504;2022-09-13T02:57:25;11.90;99.90
73939;DHT22;62291;47.554;8.504;2022-09-13T02:59:53;11.90;99.90
73939;DHT22;62291;47.554;8.504;2022-09-13T03:02:21;11.90;99.90
73939;DHT22;62291;47.554;8.504;2022-09-13T03:04:50;11.90;99.90
73939;DHT22;62291;47.554;8.504;2022-09-13T03:07:16;11.90;99.90
73939;DHT22;62291;47.554;8.504;2022-09-13T03:09:49;11.90;99.90
73939;DHT22;62291;47.554;8.504;2022-09-13T03:15:15;11.80;99.90
73939;DHT22;62291;47.554;8.504;2022-09-13T03:17:48;11.80;99.90
73939;DHT22;62291;47.554;8.504;2022-09-13T03:23:19;11.70;99.90
73939;DHT22;62291;47.554;8.504;2022-09-13T03:28:37;11.60;99.90
73939;DHT22;62291;47.554;8.504;2022-09-13T03:31:09;11.50;99.90
73939;DHT22;62291;47.554;8.504;2022-09-13T03:36:32;11.40;99.90
73939;DHT22;62291;47.554;8.504;2022-09-13T03:41:37;11.20;99.90
73939;DHT22;62291;47.554;8.504;2022-09-13T03:44:07;11.20;99.90
73939;DHT22;62291;47.554;8.504;2022-09-13T03:46:40;11.20;99.90
73939;DHT22;62291;47.554;8.504;2022-09-13T03:49:09;11.20;99.90
73939;DHT22;62291;47.554;8.504;2022-09-13T03:51:37;11.10;99.90
73939;DHT22;62291;47.554;8.504;2022-09-13T03:54:07;11.10;99.90
73939;DHT22;62291;47.554;8.504;2022-09-13T03:56:34;11.10;99.90
73939;DHT22;62291;47.554;8.504;2022-09-13T03:58:59;11.20;99.90
73939;DHT22;62291;47.554;8.504;2022-09-13T04:01:25;11.20;99.90
73939;DHT22;62291;47.554;8.504;2022-09-13T04:03:51;11.20;99.90
73939;DHT22;62291;47.554;8.504;2022-09-13T04:06:20;11.20;99.90
73939;DHT22;62291;47.554;8.504;2022-09-13T04:08:45;11.20;99.90
73939;DHT22;62291;47.554;8.504;2022-09-13T04:11:11;11.10;99.90
73939;DHT22;62291;47.554;8.504;2022-09-13T04:13:37;11.10;99.90
73939;DHT22;62291;47.554;8.504;2022-09-13T04:16:04;11.10;99.90
73939;DHT22;62291;47.554;8.504;2022-09-13T04:18:30;11.20;99.90
73939;DHT22;62291;47.554;8.504;2022-09-13T04:20:58;11.20;99.90
73939;DHT22;62291;47.554;8.504;2022-09-13T04:23:25;11.20;99.90
73939;DHT22;62291;47.554;8.504;2022-09-13T04:25:51;11.30;99.90
73939;DHT22;62291;47.554;8.504;2022-09-13T04:28:18;11.30;99.90
73939;DHT22;62291;47.554;8.504;2022-09-13T04:30:45;11.40;99.90
73939;DHT22;62291;47.554;8.504;2022-09-13T04:33:11;11.40;99.90
73939;DHT22;62291;47.554;8.504;2022-09-13T04:35:37;11.50;99.90
73939;DHT22;62291;47.554;8.504;2022-09-13T04:38:04;11.50;99.90
73939;DHT22;62291;47.554;8.504;2022-09-13T04:40:30;11.60;99.90
73939;DHT22;62291;47.554;8.504;2022-09-13T04:42:55;11.60;99.90
73939;DHT22;62291;47.554;8.504;2022-09-13T04:45:21;11.50;99.90
73939;DHT22;62291;47.554;8.504;2022-09-13T04:47:51;11.60;99.90
73939;DHT22;62291;47.554;8.504;2022-09-13T04:50:18;11.50;99.90
73939;DHT22;62291;47.554;8.504;2022-09-13T04:52:45;11.60;99.90
73939;DHT22;62291;47.554;8.504;2022-09-13T04:55:11;11.60;99.90
73939;DHT22;62291;47.554;8.504;2022-09-13T04:57:36;11.60;99.90
73939;DHT22;62291;47.554;8.504;2022-09-13T05:00:03;11.60;99.90
73939;DHT22;62291;47.554;8.504;2022-09-13T05:02:29;11.60;99.90
73939;DHT22;62291;47.554;8.504;2022-09-13T05:04:55;11.60;99.90
73939;DHT22;62291;47.554;8.504;2022-09-13T05:07:20;11.60;99.90
73939;DHT22;62291;47.554;8.504;2022-09-13T05:09:46;11.60;99.90
73939;DHT22;62291;47.554;8.504;2022-09-13T05:12:12;11.60;99.90
73939;DHT22;62291;47.554;8.504;2022-09-13T05:14:37;11.60;99.90
73939;DHT22;62291;47.554;8.504;2022-09-13T05:17:03;11.60;99.90
73939;DHT22;62291;47.554;8.504;2022-09-13T05:19:29;11.60;99.90
73939;DHT22;62291;47.554;8.504;2022-09-13T05:21:54;11.60;99.90
73939;DHT22;62291;47.554;8.504;2022-09-13T05:24:20;11.70;99.90
73939;DHT22;62291;47.554;8.504;2022-09-13T05:26:46;11.70;99.90
73939;DHT22;62291;47.554;8.504;2022-09-13T05:29:12;11.80;99.90
73939;DHT22;62291;47.554;8.504;2022-09-13T05:31:40;11.90;99.90
73939;DHT22;62291;47.554;8.504;2022-09-13T05:34:09;12.00;99.90
73939;DHT22;62291;47.554;8.504;2022-09-13T05:36:35;12.10;99.90
73939;DHT22;62291;47.554;8.504;2022-09-13T05:39:02;12.20;99.90
73939;DHT22;62291;47.554;8.504;2022-09-13T05:41:28;12.30;99.90
73939;DHT22;62291;47.554;8.504;2022-09-13T05:43:54;12.30;99.90
73939;DHT22;62291;47.554;8.504;2022-09-13T05:46:21;12.50;99.90
73939;DHT22;62291;47.554;8.504;2022-09-13T05:48:47;12.60;99.90
73939;DHT22;62291;47.554;8.504;2022-09-13T05:53:41;13.10;99.90
73939;DHT22;62291;47.554;8.504;2022-09-13T05:56:12;13.30;99.90
73939;DHT22;62291;47.554;8.504;2022-09-13T05:58:39;13.50;99.90
73939;DHT22;62291;47.554;8.504;2022-09-13T06:01:05;13.60;99.90
73939;DHT22;62291;47.554;8.504;2022-09-13T06:03:31;13.60;99.90
73939;DHT22;62291;47.554;8.504;2022-09-13T06:05:57;13.90;99.90
73939;DHT22;62291;47.554;8.504;2022-09-13T06:08:25;14.10;99.90
73939;DHT22;62291;47.554;8.504;2022-09-13T06:11:00;14.30;99.90
73939;DHT22;62291;47.554;8.504;2022-09-13T06:13:27;14.30;99.90
73939;DHT22;62291;47.554;8.504;2022-09-13T06:15:54;14.40;99.90
73939;DHT22;62291;47.554;8.504;2022-09-13T06:18:20;14.60;99.90
73939;DHT22;62291;47.554;8.504;2022-09-13T06:20:46;14.60;99.90
73939;DHT22;62291;47.554;8.504;2022-09-13T06:23:12;14.70;99.90
73939;DHT22;62291;47.554;8.504;2022-09-13T06:25:37;14.70;99.90
73939;DHT22;62291;47.554;8.504;2022-09-13T06:28:03;14.90;99.90
73939;DHT22;62291;47.554;8.504;2022-09-13T06:30:29;15.00;99.90
73939;DHT22;62291;47.554;8.504;2022-09-13T06:32:56;15.20;99.90
73939;DHT22;62291;47.554;8.504;2022-09-13T06:35:21;15.40;99.90
73939;DHT22;62291;47.554;8.504;2022-09-13T06:37:47;15.60;99.90
73939;DHT22;62291;47.554;8.504;2022-09-13T06:40:13;15.90;99.90
73939;DHT22;62291;47.554;8.504;2022-09-13T06:42:38;16.20;99.90
73939;DHT22;62291;47.554;8.504;2022-09-13T06:45:05;16.40;99.90
73939;DHT22;62291;47.554;8.504;2022-09-13T06:47:31;16.50;99.90
73939;DHT22;62291;47.554;8.504;2022-09-13T06:49:57;16.60;99.90
73939;DHT22;62291;47.554;8.504;2022-09-13T06:52:23;16.50;99.90
73939;DHT22;62291;47.554;8.504;2022-09-13T06:54:49;16.60;99.90
73939;DHT22;62291;47.554;8.504;2022-09-13T06:57:15;17.00;99.90
73939;DHT22;62291;47.554;8.504;2022-09-13T06:59:40;17.20;99.90
73939;DHT22;62291;47.554;8.504;2022-09-13T07:02:06;17.30;99.90
73939;DHT22;62291;47.554;8.504;2022-09-13T07:04:31;17.70;99.90
73939;DHT22;62291;47.554;8.504;2022-09-13T07:06:58;18.00;99.90
73939;DHT22;62291;47.554;8.504;2022-09-13T07:09:24;18.40;99.90
73939;DHT22;62291;47.554;8.504;2022-09-13T07:11:52;18.70;99.90
73939;DHT22;62291;47.554;8.504;2022-09-13T07:14:24;19.50;99.90
73939;DHT22;62291;47.554;8.504;2022-09-13T07:16:50;20.70;99.90
73939;DHT22;62291;47.554;8.504;2022-09-13T07:19:20;21.50;99.90
73939;DHT22;62291;47.554;8.504;2022-09-13T07:21:48;21.80;99.90
73939;DHT22;62291;47.554;8.504;2022-09-13T07:24:14;23.20;99.90
73939;DHT22;62291;47.554;8.504;2022-09-13T07:26:40;24.10;99.90
73939;DHT22;62291;47.554;8.504;2022-09-13T07:29:08;24.10;99.90
73939;DHT22;62291;47.554;8.504;2022-09-13T07:31:37;23.60;99.90
73939;DHT22;62291;47.554;8.504;2022-09-13T07:34:05;23.60;99.90
73939;DHT22;62291;47.554;8.504;2022-09-13T07:36:34;23.60;99.90
73939;DHT22;62291;47.554;8.504;2022-09-13T07:39:00;24.10;99.90
73939;DHT22;62291;47.554;8.504;2022-09-13T07:41:28;24.50;99.90
73939;DHT22;62291;47.554;8.504;2022-09-13T07:43:54;24.40;99.90
73939;DHT22;62291;47.554;8.504;2022-09-13T07:46:25;24.40;99.90
73939;DHT22;62291;47.554;8.504;2022-09-13T07:48:53;24.90;99.90
73939;DHT22;62291;47.554;8.504;2022-09-13T07:51:24;24.70;99.90
73939;DHT22;62291;47.554;8.504;2022-09-13T07:53:51;24.90;99.90
73939;DHT22;62291;47.554;8.504;2022-09-13T07:56:19;24.80;99.90
73939;DHT22;62291;47.554;8.504;2022-09-13T07:58:47;25.00;99.90
73939;DHT22;62291;47.554;8.504;2022-09-13T08:01:39;25.50;99.90
73939;DHT22;62291;47.554;8.504;2022-09-13T08:04:08;25.60;99.90
73939;DHT22;62291;47.554;8.504;2022-09-13T08:06:36;25.80;99.90
73939;DHT22;62291;47.554;8.504;2022-09-13T08:09:03;25.80;99.80
73939;DHT22;62291;47.554;8.504;2022-09-13T08:11:34;26.20;99.70
73939;DHT22;62291;47.554;8.504;2022-09-13T08:14:00;27.40;99.00
73939;DHT22;62291;47.554;8.504;2022-09-13T08:16:30;28.10;96.00
73939;DHT22;62291;47.554;8.504;2022-09-13T08:18:58;27.40;95.90
73939;DHT22;62291;47.554;8.504;2022-09-13T08:21:25;28.10;96.00
73939;DHT22;62291;47.554;8.504;2022-09-13T08:23:55;28.70;94.90
73939;DHT22;62291;47.554;8.504;2022-09-13T08:26:24;29.20;94.30
73939;DHT22;62291;47.554;8.504;2022-09-13T08:28:55;28.40;94.90
73939;DHT22;62291;47.554;8.504;2022-09-13T08:31:21;27.90;95.70
73939;DHT22;62291;47.554;8.504;2022-09-13T08:33:47;28.30;96.60
73939;DHT22;62291;47.554;8.504;2022-09-13T08:36:14;28.60;95.40
73939;DHT22;62291;47.554;8.504;2022-09-13T08:38:45;28.10;93.70
73939;DHT22;62291;47.554;8.504;2022-09-13T08:46:48;27.20;95.70
73939;DHT22;62291;47.554;8.504;2022-09-13T08:49:27;27.10;94.30
73939;DHT22;62291;47.554;8.504;2022-09-13T08:51:58;27.00;96.60
73939;DHT22;62291;47.554;8.504;2022-09-13T08:54:25;26.90;95.80
73939;DHT22;62291;47.554;8.504;2022-09-13T08:57:16;27.00;96.20
73939;DHT22;62291;47.554;8.504;2022-09-13T09:02:54;27.30;94.10
73939;DHT22;62291;47.554;8.504;2022-09-13T09:05:29;27.80;94.70
73939;DHT22;62291;47.554;8.504;2022-09-13T09:08:05;28.70;92.80
73939;DHT22;62291;47.554;8.504;2022-09-13T09:10:44;28.80;91.90
73939;DHT22;62291;47.554;8.504;2022-09-13T09:16:06;28.50;92.90
73939;DHT22;62291;47.554;8.504;2022-09-13T09:18:37;28.90;90.80
73939;DHT22;62291;47.554;8.504;2022-09-13T09:21:08;29.10;91.60
73939;DHT22;62291;47.554;8.504;2022-09-13T09:23:51;29.00;92.40
73939;DHT22;62291;47.554;8.504;2022-09-13T09:26:24;29.10;90.30
73939;DHT22;62291;47.554;8.504;2022-09-13T09:29:21;28.70;91.60
73939;DHT22;62291;47.554;8.504;2022-09-13T09:34:41;28.40;92.00
73939;DHT22;62291;47.554;8.504;2022-09-13T09:37:23;28.10;92.80
73939;DHT22;62291;47.554;8.504;2022-09-13T09:39:52;28.30;93.60
73939;DHT22;62291;47.554;8.504;2022-09-13T09:42:24;28.20;90.90
73939;DHT22;62291;47.554;8.504;2022-09-13T09:44:56;28.20;92.00
73939;DHT22;62291;47.554;8.504;2022-09-13T09:47:27;28.20;91.30
73939;DHT22;62291;47.554;8.504;2022-09-13T09:49:58;28.30;90.90
73939;DHT22;62291;47.554;8.504;2022-09-13T09:52:54;28.10;92.30
73939;DHT22;62291;47.554;8.504;2022-09-13T09:55:24;28.20;91.90
73939;DHT22;62291;47.554;8.504;2022-09-13T09:58:11;28.00;91.30
73939;DHT22;62291;47.554;8.504;2022-09-13T10:00:55;28.10;93.10
73939;DHT22;62291;47.554;8.504;2022-09-13T10:03:27;27.80;93.80
73939;DHT22;62291;47.554;8.504;2022-09-13T10:06:14;28.20;95.00
73939;DHT22;62291;47.554;8.504;2022-09-13T10:08:56;28.50;93.70
73939;DHT22;62291;47.554;8.504;2022-09-13T10:11:23;28.40;92.30
73939;DHT22;62291;47.554;8.504;2022-09-13T10:14:00;28.50;93.10
73939;DHT22;62291;47.554;8.504;2022-09-13T10:16:28;28.30;91.80
73939;DHT22;62291;47.554;8.504;2022-09-13T10:19:23;28.30;92.40
73939;DHT22;62291;47.554;8.504;2022-09-13T10:24:26;28.80;93.20
73939;DHT22;62291;47.554;8.504;2022-09-13T10:26:54;28.80;91.50
73939;DHT22;62291;47.554;8.504;2022-09-13T10:29:20;28.70;92.30
73939;DHT22;62291;47.554;8.504;2022-09-13T10:31:49;28.50;91.80
73939;DHT22;62291;47.554;8.504;2022-09-13T10:34:33;28.50;93.40
73939;DHT22;62291;47.554;8.504;2022-09-13T10:37:26;28.70;93.20
73939;DHT22;62291;47.554;8.504;2022-09-13T10:40:07;28.70;92.60
73939;DHT22;62291;47.554;8.504;2022-09-13T10:42:37;28.90;92.20
73939;DHT22;62291;47.554;8.504;2022-09-13T10:45:07;29.00;94.20
73939;DHT22;62291;47.554;8.504;2022-09-13T10:47:42;29.20;92.90
73939;DHT22;62291;47.554;8.504;2022-09-13T10:50:23;29.50;92.50
73939;DHT22;62291;47.554;8.504;2022-09-13T10:52:59;29.40;91.40
73939;DHT22;62291;47.554;8.504;2022-09-13T10:55:37;29.40;92.60
73939;DHT22;62291;47.554;8.504;2022-09-13T11:00:55;29.00;91.10
73939;DHT22;62291;47.554;8.504;2022-09-13T11:06:34;28.40;92.70
73939;DHT22;62291;47.554;8.504;2022-09-13T11:17:07;27.70;93.60
73939;DHT22;62291;47.554;8.504;2022-09-13T11:19:51;27.70;94.30
73939;DHT22;62291;47.554;8.504;2022-09-13T11:22:44;27.90;92.80
73939;DHT22;62291;47.554;8.504;2022-09-13T11:28:24;28.10;94.40
73939;DHT22;62291;47.554;8.504;2022-09-13T11:55:29;27.90;93.50
73939;DHT22;62291;47.554;8.504;2022-09-13T11:58:02;27.70;93.60
73939;DHT22;62291;47.554;8.504;2022-09-13T12:00:46;27.70;94.20
73939;DHT22;62291;47.554;8.504;2022-09-13T12:03:24;28.10;95.10
73939;DHT22;62291;47.554;8.504;2022-09-13T12:06:22;28.20;95.20
73939;DHT22;62291;47.554;8.504;2022-09-13T12:09:04;28.20;93.70
73939;DHT22;62291;47.554;8.504;2022-09-13T12:11:44;28.00;92.80
73939;DHT22;62291;47.554;8.504;2022-09-13T12:14:23;27.70;95.20
73939;DHT22;62291;47.554;8.504;2022-09-13T12:16:53;27.40;94.00
73939;DHT22;62291;47.554;8.504;2022-09-13T12:21:58;27.50;94.60
73939;DHT22;62291;47.554;8.504;2022-09-13T12:24:44;27.50;93.90
73939;DHT22;62291;47.554;8.504;2022-09-13T12:27:23;27.50;94.50
73939;DHT22;62291;47.554;8.504;2022-09-13T12:29:54;27.50;94.20
73939;DHT22;62291;47.554;8.504;2022-09-13T12:32:21;27.60;95.00
73939;DHT22;62291;47.554;8.504;2022-09-13T12:43:06;27.70;93.50
73939;DHT22;62291;47.554;8.504;2022-09-13T12:52:01;28.40;92.90
73939;DHT22;62291;47.554;8.504;2022-09-13T13:05:32;28.30;92.20
73939;DHT22;62291;47.554;8.504;2022-09-13T13:08:03;28.10;93.20
73939;DHT22;62291;47.554;8.504;2022-09-13T13:13:07;27.70;94.00
73939;DHT22;62291;47.554;8.504;2022-09-13T13:19:02;27.70;95.40
73939;DHT22;62291;47.554;8.504;2022-09-13T13:29:24;27.60;96.50
73939;DHT22;62291;47.554;8.504;2022-09-13T13:39:38;27.30;96.30
73939;DHT22;62291;47.554;8.504;2022-09-13T13:42:28;27.40;95.40
73939;DHT22;62291;47.554;8.504;2022-09-13T13:50:12;27.20;95.20
73939;DHT22;62291;47.554;8.504;2022-09-13T13:52:54;27.20;95.80
73939;DHT22;62291;47.554;8.504;2022-09-13T13:55:40;27.20;95.70
73939;DHT22;62291;47.554;8.504;2022-09-13T14:00:33;27.20;95.90
73939;DHT22;62291;47.554;8.504;2022-09-13T14:06:10;27.20;95.30
73939;DHT22;62291;47.554;8.504;2022-09-13T14:20:11;27.10;94.50
73939;DHT22;62291;47.554;8.504;2022-09-13T14:22:37;27.10;95.10
73939;DHT22;62291;47.554;8.504;2022-09-13T14:25:23;27.30;98.40
73939;DHT22;62291;47.554;8.504;2022-09-13T14:27:52;27.40;98.10
73939;DHT22;62291;47.554;8.504;2022-09-13T14:30:37;27.40;97.20
73939;DHT22;62291;47.554;8.504;2022-09-13T14:33:04;27.40;95.40
73939;DHT22;62291;47.554;8.504;2022-09-13T14:35:38;27.50;95.80
73939;DHT22;62291;47.554;8.504;2022-09-13T14:38:26;27.50;97.60
73939;DHT22;62291;47.554;8.504;2022-09-13T14:41:12;27.60;96.30
73939;DHT22;62291;47.554;8.504;2022-09-13T14:43:38;27.50;96.60
73939;DHT22;62291;47.554;8.504;2022-09-13T14:49:22;27.40;97.20
73939;DHT22;62291;47.554;8.504;2022-09-13T14:52:00;27.20;96.50
73939;DHT22;62291;47.554;8.504;2022-09-13T14:54:34;27.20;97.70
73939;DHT22;62291;47.554;8.504;2022-09-13T14:57:02;27.10;97.20
73939;DHT22;62291;47.554;8.504;2022-09-13T14:59:33;27.10;96.70
73939;DHT22;62291;47.554;8.504;2022-09-13T15:02:20;27.00;98.90
73939;DHT22;62291;47.554;8.504;2022-09-13T15:04:53;27.10;97.50
73939;DHT22;62291;47.554;8.504;2022-09-13T15:07:34;27.10;97.70
73939;DHT22;62291;47.554;8.504;2022-09-13T15:12:31;27.10;97.30
73939;DHT22;62291;47.554;8.504;2022-09-13T15:20:19;27.10;99.90
73939;DHT22;62291;47.554;8.504;2022-09-13T15:22:45;27.10;99.90
73939;DHT22;62291;47.554;8.504;2022-09-13T15:25:26;26.90;99.90
73939;DHT22;62291;47.554;8.504;2022-09-13T15:27:54;26.90;99.90
73939;DHT22;62291;47.554;8.504;2022-09-13T15:30:26;26.80;99.90
73939;DHT22;62291;47.554;8.504;2022-09-13T15:35:42;26.70;99.90
73939;DHT22;62291;47.554;8.504;2022-09-13T15:38:26;26.70;99.90
73939;DHT22;62291;47.554;8.504;2022-09-13T15:41:13;26.60;99.90
73939;DHT22;62291;47.554;8.504;2022-09-13T15:43:38;26.60;99.90
73939;DHT22;62291;47.554;8.504;2022-09-13T15:46:05;26.60;99.90
73939;DHT22;62291;47.554;8.504;2022-09-13T15:48:33;26.50;99.90
73939;DHT22;62291;47.554;8.504;2022-09-13T15:51:14;26.40;99.90
73939;DHT22;62291;47.554;8.504;2022-09-13T15:53:41;26.30;99.90
73939;DHT22;62291;47.554;8.504;2022-09-13T15:56:08;26.30;99.90
73939;DHT22;62291;47.554;8.504;2022-09-13T15:58:36;26.30;99.90
73939;DHT22;62291;47.554;8.504;2022-09-13T16:01:03;26.20;99.90
73939;DHT22;62291;47.554;8.504;2022-09-13T16:03:29;26.10;99.90
73939;DHT22;62291;47.554;8.504;2022-09-13T16:05:54;26.00;99.90
73939;DHT22;62291;47.554;8.504;2022-09-13T16:08:20;25.90;99.90
73939;DHT22;62291;47.554;8.504;2022-09-13T16:10:46;25.80;99.90
73939;DHT22;62291;47.554;8.504;2022-09-13T16:13:11;25.80;99.90
73939;DHT22;62291;47.554;8.504;2022-09-13T16:15:37;25.70;99.90
73939;DHT22;62291;47.554;8.504;2022-09-13T16:18:03;25.60;99.90
73939;DHT22;62291;47.554;8.504;2022-09-13T16:20:29;25.60;99.90
73939;DHT22;62291;47.554;8.504;2022-09-13T16:22:54;25.50;99.90
73939;DHT22;62291;47.554;8.504;2022-09-13T16:25:20;25.40;99.90
73939;DHT22;62291;47.554;8.504;2022-09-13T16:27:46;25.40;99.90
73939;DHT22;62291;47.554;8.504;2022-09-13T16:30:18;25.30;99.90
73939;DHT22;62291;47.554;8.504;2022-09-13T16:32:44;25.20;99.90
73939;DHT22;62291;47.554;8.504;2022-09-13T16:35:11;25.20;99.90
73939;DHT22;62291;47.554;8.504;2022-09-13T16:37:38;25.20;99.90
73939;DHT22;62291;47.554;8.504;2022-09-13T16:40:05;25.10;99.90
73939;DHT22;62291;47.554;8.504;2022-09-13T16:42:31;25.00;99.90
73939;DHT22;62291;47.554;8.504;2022-09-13T16:44:57;24.90;99.90
73939;DHT22;62291;47.554;8.504;2022-09-13T16:47:23;24.80;99.90
73939;DHT22;62291;47.554;8.504;2022-09-13T16:49:49;24.70;99.90
73939;DHT22;62291;47.554;8.504;2022-09-13T16:52:14;24.60;99.90
73939;DHT22;62291;47.554;8.504;2022-09-13T16:54:40;24.40;99.90
73939;DHT22;62291;47.554;8.504;2022-09-13T16:57:06;24.20;99.90
73939;DHT22;62291;47.554;8.504;2022-09-13T16:59:35;24.20;99.90
73939;DHT22;62291;47.554;8.504;2022-09-13T17:02:01;24.10;99.90
73939;DHT22;62291;47.554;8.504;2022-09-13T17:04:27;24.00;99.90
73939;DHT22;62291;47.554;8.504;2022-09-13T17:06:53;23.90;99.90
73939;DHT22;62291;47.554;8.504;2022-09-13T17:09:19;23.70;99.90
73939;DHT22;62291;47.554;8.504;2022-09-13T17:11:46;23.70;99.90
73939;DHT22;62291;47.554;8.504;2022-09-13T17:14:12;23.50;99.90
73939;DHT22;62291;47.554;8.504;2022-09-13T17:17:00;23.50;99.90
73939;DHT22;62291;47.554;8.504;2022-09-13T17:19:28;23.40;99.90
73939;DHT22;62291;47.554;8.504;2022-09-13T17:21:56;23.30;99.90
73939;DHT22;62291;47.554;8.504;2022-09-13T17:24:23;23.20;99.90
73939;DHT22;62291;47.554;8.504;2022-09-13T17:26:48;23.10;99.90
73939;DHT22;62291;47.554;8.504;2022-09-13T17:29:15;23.10;99.90
73939;DHT22;62291;47.554;8.504;2022-09-13T17:31:41;23.00;99.90
73939;DHT22;62291;47.554;8.504;2022-09-13T17:34:11;22.90;99.90
73939;DHT22;62291;47.554;8.504;2022-09-13T17:36:38;22.80;99.90
73939;DHT22;62291;47.554;8.504;2022-09-13T17:39:04;22.80;99.90
73939;DHT22;62291;47.554;8.504;2022-09-13T17:41:30;22.70;99.90
73939;DHT22;62291;47.554;8.504;2022-09-13T17:43:56;22.70;99.90
73939;DHT22;62291;47.554;8.504;2022-09-13T17:46:24;22.60;99.90
73939;DHT22;62291;47.554;8.504;2022-09-13T17:48:51;22.50;99.90
73939;DHT22;62291;47.554;8.504;2022-09-13T17:51:22;22.50;99.90
73939;DHT22;62291;47.554;8.504;2022-09-13T17:53:50;22.50;99.90
73939;DHT22;62291;47.554;8.504;2022-09-13T17:56:18;22.40;99.90
73939;DHT22;62291;47.554;8.504;2022-09-13T17:58:45;22.30;99.90
73939;DHT22;62291;47.554;8.504;2022-09-13T18:01:11;22.20;99.90
73939;DHT22;62291;47.554;8.504;2022-09-13T18:03:37;22.20;99.90
73939;DHT22;62291;47.554;8.504;2022-09-13T18:06:05;22.20;99.90
73939;DHT22;62291;47.554;8.504;2022-09-13T18:08:33;22.10;99.90
73939;DHT22;62291;47.554;8.504;2022-09-13T18:11:03;22.10;99.90
73939;DHT22;62291;47.554;8.504;2022-09-13T18:13:29;22.00;99.90
73939;DHT22;62291;47.554;8.504;2022-09-13T18:16:13;22.00;99.90
73939;DHT22;62291;47.554;8.504;2022-09-13T18:18:39;22.00;99.90
73939;DHT22;62291;47.554;8.504;2022-09-13T18:21:05;22.00;99.90
73939;DHT22;62291;47.554;8.504;2022-09-13T18:23:32;21.90;99.90
73939;DHT22;62291;47.554;8.504;2022-09-13T18:26:10;21.80;99.90
73939;DHT22;62291;47.554;8.504;2022-09-13T18:28:36;21.80;99.90
73939;DHT22;62291;47.554;8.504;2022-09-13T18:31:04;21.70;99.90
73939;DHT22;62291;47.554;8.504;2022-09-13T18:33:31;21.70;99.90
73939;DHT22;62291;47.554;8.504;2022-09-13T18:35:58;21.60;99.90
73939;DHT22;62291;47.554;8.504;2022-09-13T18:38:25;21.50;99.90
73939;DHT22;62291;47.554;8.504;2022-09-13T18:41:02;21.40;99.90
73939;DHT22;62291;47.554;8.504;2022-09-13T18:43:28;21.30;99.90
73939;DHT22;62291;47.554;8.504;2022-09-13T18:45:56;21.30;99.90
73939;DHT22;62291;47.554;8.504;2022-09-13T18:48:22;21.20;99.90
73939;DHT22;62291;47.554;8.504;2022-09-13T18:50:47;21.10;99.90
73939;DHT22;62291;47.554;8.504;2022-09-13T18:53:13;21.10;99.90